Flight Track Log - Related Links

Times and Time Zones

All times are in EDT time to prevent confusion due to time zone crossing. See the SWA718 flight status page for this flight to view local times or setup timezone preferences in your user account.

Time Position Orientation Groundspeed Altitude Reporting Facility
EDT Latitude Longitude Course Direction KTS MPH feet Rate Location/Type
Fri 09:19:30 AM 37.7167 -122.2500 288° West 161 185 800  Level Northern Cal TRACON
Fri 09:20:30 AM 37.7333 -122.3167 288° West 212 244 2,600 2,000 Climbing Northern Cal TRACON
Fri 09:21:30 AM 37.7667 -122.3667 310° West 230 265 4,800 2,250 Climbing Northern Cal TRACON
Fri 09:22:30 AM 37.8333 -122.3833 349° North 287 330 7,100 2,496 Climbing Northern Cal TRACON
Fri 09:23:23 AM 37.9089 -122.3783 North 294 338 9,500 2,842 Climbing Oakland Center
Fri 09:24:24 AM 37.9497 -122.2922 59° Northeast 300 345 12,500 2,678 Climbing Oakland Center
Fri 09:25:24 AM 37.9606 -122.1822 83° East 316 364 14,900 1,240 Climbing Oakland Center
Fri 09:26:25 AM 37.9725 -122.0672 82° East 327 376 15,000 934 Climbing Oakland Center
Fri 09:27:26 AM 37.9847 -121.9428 83° East 352 405 16,800 1,623 Climbing Oakland Center
Fri 09:28:27 AM 37.9972 -121.8106 83° East 375 432 18,300 1,736 Climbing Oakland Center
Fri 09:29:27 AM 38.0108 -121.6775 83° East 381 438 20,300 2,083 Climbing Oakland Center
Fri 09:30:28 AM 38.0069 -121.5369 92° East 397 457 22,500 2,115 Climbing Oakland Center
Fri 09:31:29 AM 37.9933 -121.3836 96° East 404 465 24,600 1,736 Climbing Oakland Center
Fri 09:32:29 AM 37.9814 -121.2333 96° East 426 490 26,000 1,488 Climbing Oakland Center
Fri 09:33:30 AM 37.9831 -121.0742 89° East 455 524 27,600 1,623 Climbing Oakland Center
Fri 09:34:31 AM 37.9942 -120.9117 85° East 464 534 29,300 1,426 Climbing Oakland Center
Fri 09:35:32 AM 38.0044 -120.7475 85° East 470 541 30,500 1,289 Climbing Oakland Center
Fri 09:36:32 AM 38.0167 -120.5761 85° East 485 558 31,900 1,289 Climbing Oakland Center
Fri 09:37:33 AM 38.0272 -120.4053 85° East 487 560 33,100 1,230 Climbing Oakland Center
Fri 09:38:34 AM 38.0381 -120.2319 85° East 493 567 34,400 1,328 Climbing Oakland Center
Fri 09:39:35 AM 38.0506 -120.0594 85° East 493 567 35,800 1,279 Climbing Oakland Center
Fri 09:40:36 AM 38.0608 -119.8883 86° East 490 564 37,000 590 Climbing Oakland Center
Fri 09:41:37 AM 38.0694 -119.7175 86° East 487 560 37,000  Level Oakland Center
Fri 09:42:38 AM 38.0803 -119.5450 85° East 492 566 37,000  Level Oakland Center
Fri 09:43:39 AM 38.0894 -119.3422 87° East 483 556 37,000  Level Oakland Center
Fri 09:44:40 AM 38.0981 -119.1714 86° East 486 559 37,000  Level Oakland Center
Fri 09:45:40 AM 38.1092 -119.0050 85° East 486 559 37,000  Level Oakland Center
Fri 09:46:41 AM 38.1189 -118.8353 86° East 484 557 37,000  Level Oakland Center
Fri 09:47:42 AM 38.1239 -118.6642 88° East 485 558 37,000  Level Oakland Center
Fri 09:48:43 AM 38.1319 -118.4958 86° East 485 558 37,000  Level Oakland Center
Fri 09:49:44 AM 38.1400 -118.3267 86° East 483 556 37,000  Level Oakland Center
Fri 09:50:45 AM 38.1467 -118.1572 87° East 483 556 37,000  Level Oakland Center
Fri 09:51:46 AM 38.1547 -117.9831 87° East 482 555 37,000  Level Oakland Center
Fri 09:52:47 AM 38.1614 -117.8131 87° East 482 555 37,000  Level Oakland Center
Fri 09:53:48 AM 38.1689 -117.6433 87° East 482 555 37,000  Level Oakland Center
Fri 09:54:49 AM 38.1750 -117.4739 87° East 481 554 37,000  Level Oakland Center
Fri 09:55:50 AM 38.1817 -117.2800 87° East 477 549 37,000  Level Oakland Center
Fri 09:56:51 AM 38.1900 -117.1042 86° East 506 582 37,000  Level Oakland Center
Fri 09:57:52 AM 38.1933 -116.9494 88° East 479 551 37,000  Level Oakland Center
Fri 09:58:53 AM 38.1983 -116.7831 88° East 472 543 37,000  Level Oakland Center
Fri 09:59:54 AM 38.2033 -116.6139 88° East 477 549 37,000  Level Oakland Center
Fri 10:00:55 AM 38.2078 -116.4447 88° East 479 551 37,000  Level Oakland Center
Fri 10:02:06 AM 38.2144 -116.2403 88° East 482 555 37,000  Level Salt Lake Center
Fri 10:03:07 AM 38.2186 -116.0700 88° East 483 556 37,000  Level Salt Lake Center
Fri 10:04:09 AM 38.2244 -115.8658 88° East 482 555 37,000  Level Salt Lake Center
Fri 10:05:11 AM 38.2286 -115.6947 88° East 485 558 37,000  Level Salt Lake Center
Fri 10:06:12 AM 38.2308 -115.5242 89° East 482 555 37,000  Level Salt Lake Center
Fri 10:07:14 AM 38.2342 -115.3547 89° East 481 554 37,000  Level Salt Lake Center
Fri 10:08:16 AM 38.2386 -115.1844 88° East 484 557 37,000  Level Salt Lake Center
Fri 10:09:17 AM 38.2417 -115.0136 89° East 483 556 37,000  Level Salt Lake Center
Fri 10:10:19 AM 38.2447 -114.8428 89° East 485 558 37,000  Level Salt Lake Center
Fri 10:11:21 AM 38.2481 -114.6389 89° East 482 555 37,000  Level Salt Lake Center
Fri 10:12:22 AM 38.2494 -114.4667 89° East 486 559 37,000  Level Salt Lake Center
Fri 10:14:26 AM 38.2489 -114.1289 90° East 485 558 37,000  Level Salt Lake Center
Fri 10:15:28 AM 38.2050 -113.9719 110° East 473 544 37,000  Level Salt Lake Center
Fri 10:16:29 AM 38.1622 -113.8144 109° East 471 542 37,000  Level Salt Lake Center
Fri 10:17:31 AM 38.1186 -113.6564 109° East 474 545 37,000  Level Salt Lake Center
Fri 10:18:33 AM 38.0750 -113.4986 109° East 473 544 37,000  Level Salt Lake Center
Fri 10:19:34 AM 38.0228 -113.3089 109° East 474 545 37,000  Level Salt Lake Center
Fri 10:20:36 AM 37.9775 -113.1492 110° East 479 551 37,000  Level Salt Lake Center
Fri 10:21:38 AM 37.9342 -112.9903 109° East 476 548 37,000  Level Salt Lake Center
Fri 10:22:40 AM 37.8889 -112.8300 110° East 478 550 37,000  Level Salt Lake Center
Fri 10:23:41 AM 37.8422 -112.6703 110° East 478 550 37,000  Level Salt Lake Center
Fri 10:24:43 AM 37.7961 -112.5111 110° East 477 549 37,000  Level Salt Lake Center
Fri 10:25:45 AM 37.7506 -112.3531 110° East 477 549 37,000  Level Salt Lake Center
Fri 10:26:47 AM 37.7050 -112.1956 110° East 477 549 37,000  Level Salt Lake Center
Fri 10:27:49 AM 37.6581 -112.0386 111° Southeast 476 548 37,000  Level Salt Lake Center
Fri 10:28:50 AM 37.6031 -111.8514 110° East 476 548 37,000  Level Salt Lake Center
Fri 10:29:52 AM 37.5578 -111.6956 110° East 474 545 37,000  Level Salt Lake Center
Fri 10:30:54 AM 37.5106 -111.5394 111° Southeast 476 548 37,000  Level Salt Lake Center
Fri 10:32:02 AM 37.4644 -111.3844 111° Southeast 473 544 37,000  Level Denver Center
Fri 10:33:04 AM 37.4086 -111.1986 111° Southeast 473 544 37,000  Level Denver Center
Fri 10:34:06 AM 37.3631 -111.0431 110° East 473 544 37,000  Level Denver Center
Fri 10:35:08 AM 37.3150 -110.8883 111° Southeast 476 548 37,000  Level Denver Center
Fri 10:36:10 AM 37.2675 -110.7333 111° Southeast 477 549 37,000  Level Denver Center
Fri 10:37:12 AM 37.2197 -110.5778 111° Southeast 478 550 37,000  Level Denver Center
Fri 10:38:14 AM 37.1717 -110.4239 111° Southeast 475 547 37,000  Level Denver Center
Fri 10:39:16 AM 37.1139 -110.2383 111° Southeast 478 550 37,000  Level Denver Center
Fri 10:40:19 AM 37.0681 -110.0942 112° Southeast 474 545 37,000  Level Denver Center
Fri 10:41:21 AM 37.0150 -109.9219 111° Southeast 475 547 37,000  Level Denver Center
Fri 10:42:23 AM 36.9689 -109.7761 112° Southeast 471 542 37,000  Level Denver Center
Fri 10:43:25 AM 36.9144 -109.6031 111° Southeast 477 549 37,000  Level Denver Center
Fri 10:44:27 AM 36.8675 -109.4561 112° Southeast 475 547 37,000  Level Denver Center
Fri 10:45:29 AM 36.8197 -109.3097 112° Southeast 474 545 37,000  Level Denver Center
Fri 10:46:31 AM 36.7642 -109.1386 112° Southeast 475 547 37,000  Level Denver Center
Fri 10:47:33 AM 36.7169 -108.9925 112° Southeast 474 545 37,000  Level Denver Center
Fri 10:48:35 AM 36.6608 -108.8211 112° Southeast 475 547 37,000  Level Denver Center
Fri 10:49:37 AM 36.6122 -108.6731 112° Southeast 477 549 37,000  Level Denver Center
Fri 10:50:39 AM 36.5558 -108.5025 112° Southeast 476 548 37,000  Level Denver Center
Fri 10:51:41 AM 36.5078 -108.3564 112° Southeast 474 545 37,000  Level Denver Center
Fri 10:52:43 AM 36.4586 -108.2106 113° Southeast 475 547 37,000  Level Denver Center
Fri 10:53:45 AM 36.4017 -108.0414 113° Southeast 475 547 37,000  Level Denver Center
Fri 10:54:47 AM 36.3525 -107.8969 113° Southeast 473 544 37,000  Level Denver Center
Fri 10:55:50 AM 36.2956 -107.7278 113° Southeast 475 547 37,000  Level Denver Center
Fri 10:56:52 AM 36.2464 -107.5850 113° Southeast 471 542 37,000  Level Denver Center
Fri 10:57:54 AM 36.1894 -107.4167 113° Southeast 473 544 37,000  Level Denver Center
Fri 10:58:58 AM 36.1369 -107.2658 113° Southeast 475 547 37,000  Level Denver Center
Fri 11:00:00 AM 36.0850 -107.1150 113° Southeast 476 548 37,000  Level Denver Center
Fri 11:01:02 AM 36.0322 -106.9631 113° Southeast 478 550 37,000  Level Denver Center
Fri 11:02:04 AM 35.9797 -106.8128 113° Southeast 476 548 37,000  Level Denver Center
Fri 11:03:27 AM 35.9042 -106.6003 114° Southeast 480 552 37,000 414 Level Albuquerque Center
Fri 11:04:29 AM 35.8450 -106.4294 113° Southeast 489 563 38,000 871 Climbing Albuquerque Center
Fri 11:05:31 AM 35.7858 -106.2664 114° Southeast 485 558 38,800 484 Climbing Albuquerque Center
Fri 11:06:33 AM 35.7350 -106.1156 113° Southeast 474 545 39,000 97 Climbing Albuquerque Center
Fri 11:07:35 AM 35.6811 -105.9636 114° Southeast 479 551 39,000  Level Albuquerque Center
Fri 11:08:37 AM 35.6161 -105.7925 115° Southeast 505 581 39,000  Level Albuquerque Center
Fri 11:09:39 AM 35.5611 -105.6433 114° Southeast 488 562 39,000  Level Albuquerque Center
Fri 11:10:41 AM 35.5064 -105.4928 114° Southeast 481 554 39,000  Level Albuquerque Center
Fri 11:11:43 AM 35.4511 -105.3425 114° Southeast 480 552 39,000  Level Albuquerque Center
Fri 11:12:45 AM 35.3958 -105.1922 114° Southeast 481 554 39,000  Level Albuquerque Center
Fri 11:13:59 AM 35.3303 -105.0189 115° Southeast 479 551 39,000  Level Albuquerque Center
Fri 11:15:01 AM 35.2664 -104.8458 114° Southeast 476 548 39,000  Level Albuquerque Center
Fri 11:16:03 AM 35.2114 -104.6986 115° Southeast 473 544 39,000  Level Albuquerque Center
Fri 11:17:05 AM 35.1536 -104.5461 115° Southeast 477 549 39,000  Level Albuquerque Center
Fri 11:18:07 AM 35.0964 -104.3992 115° Southeast 480 552 39,000  Level Albuquerque Center
Fri 11:19:09 AM 35.0436 -104.2594 115° Southeast 473 544 39,000  Level Albuquerque Center
Fri 11:20:11 AM 34.9800 -104.0881 114° Southeast 477 549 39,000  Level Albuquerque Center
Fri 11:21:13 AM 34.9247 -103.9414 115° Southeast 475 547 39,000  Level Albuquerque Center
Fri 11:22:15 AM 34.8683 -103.7950 115° Southeast 475 547 39,000  Level Albuquerque Center
Fri 11:23:17 AM 34.8119 -103.6486 115° Southeast 475 547 39,000  Level Albuquerque Center
Fri 11:24:19 AM 34.7556 -103.5022 115° Southeast 474 545 39,000  Level Albuquerque Center
Fri 11:25:21 AM 34.6975 -103.3561 116° Southeast 476 548 39,000  Level Albuquerque Center
Fri 11:26:23 AM 34.6308 -103.1853 115° Southeast 477 549 39,000  Level Albuquerque Center
Fri 11:27:25 AM 34.5739 -103.0381 115° Southeast 478 550 39,000  Level Albuquerque Center
Fri 11:28:27 AM 34.5153 -102.8908 116° Southeast 479 551 39,000  Level Albuquerque Center
Fri 11:29:29 AM 34.4472 -102.7664 124° Southeast 481 554 39,000  Level Albuquerque Center
Fri 11:30:31 AM 34.3650 -102.6397 128° Southeast 480 552 39,000  Level Albuquerque Center
Fri 11:31:33 AM 34.2642 -102.4875 129° Southeast 483 556 39,000  Level Albuquerque Center
Fri 11:32:36 AM 34.1939 -102.3783 128° Southeast 484 557 39,000  Level Albuquerque Center
Fri 11:33:15 AM 34.1247 -102.2756 129° Southeast 481 554 39,000  Level Fort Worth Center
Fri 11:34:15 AM 34.0497 -102.1661 130° Southeast 481 554 39,000  Level Fort Worth Center
Fri 11:35:15 AM 33.9522 -102.0331 131° Southeast 475 547 39,000  Level Fort Worth Center
Fri 11:36:15 AM 33.8661 -101.9408 138° Southeast 475 547 39,000  Level Fort Worth Center
Fri 11:37:15 AM 33.7800 -101.8389 135° Southeast 468 539 39,000  Level Fort Worth Center
Fri 11:38:15 AM 33.6569 -101.7131 140° Southeast 479 551 39,000  Level Fort Worth Center
Fri 11:39:15 AM 33.5522 -101.6031 139° Southeast 497 572 39,000  Level Fort Worth Center
Fri 11:40:15 AM 33.4678 -101.5094 137° Southeast 483 556 39,000  Level Fort Worth Center
Fri 11:41:15 AM 33.3586 -101.3950 139° Southeast 472 543 39,000  Level Fort Worth Center
Fri 11:42:15 AM 33.2717 -101.3042 139° Southeast 472 543 39,000  Level Fort Worth Center
Fri 11:43:15 AM 33.1828 -101.2083 138° Southeast 472 543 39,000  Level Fort Worth Center
Fri 11:44:15 AM 33.0736 -101.0972 140° Southeast 472 543 39,000  Level Fort Worth Center
Fri 11:45:15 AM 32.9642 -100.9836 139° Southeast 472 543 39,000  Level Fort Worth Center
Fri 11:46:15 AM 32.8625 -100.8808 140° Southeast 472 543 39,000  Level Fort Worth Center
Fri 11:47:15 AM 32.7631 -100.7756 138° Southeast 467 537 39,000  Level Fort Worth Center
Fri 11:48:15 AM 32.6636 -100.6756 140° Southeast 467 537 39,000  Level Fort Worth Center
Fri 11:49:15 AM 32.5639 -100.5733 139° Southeast 467 537 39,000  Level Fort Worth Center
Fri 11:50:15 AM 32.4661 -100.4717 139° Southeast 467 537 39,000  Level Fort Worth Center
Fri 11:51:15 AM 32.3664 -100.3697 139° Southeast 467 537 39,000  Level Fort Worth Center
Fri 11:52:15 AM 32.2747 -100.2758 139° Southeast 473 544 39,000  Level Fort Worth Center
Fri 11:53:15 AM 32.1786 -100.1747 138° Southeast 473 544 39,000  Level Fort Worth Center
Fri 11:54:15 AM 32.0767 -100.0736 140° Southeast 468 539 39,000  Level Fort Worth Center
Fri 11:55:15 AM 31.9786 -99.9703 138° Southeast 468 539 39,000  Level Fort Worth Center
Fri 11:57:10 AM 31.7997 -99.7856 139° Southeast 467 537 39,000  Level Houston Center
Fri 11:58:12 AM 31.7011 -99.6864 139° Southeast 466 536 39,000  Level Houston Center
Fri 11:59:14 AM 31.5842 -99.5694 140° Southeast 461 531 39,000  Level Houston Center
Fri 12:00:16 PM 31.4933 -99.4769 139° Southeast 462 532 39,000  Level Houston Center
Fri 12:01:18 PM 31.3944 -99.3800 140° Southeast 459 528 39,000  Level Houston Center
Fri 12:02:20 PM 31.2931 -99.2764 139° Southeast 458 527 39,000  Level Houston Center
Fri 12:03:22 PM 31.2378 -99.1239 113° Southeast 453 521 39,000  Level Houston Center
Fri 12:04:25 PM 31.2014 -98.9803 106° East 457 526 39,000  Level Houston Center
Fri 12:05:27 PM 31.1642 -98.8394 107° East 452 520 39,000  Level Houston Center
Fri 12:06:29 PM 31.1281 -98.6956 106° East 456 525 39,000  Level Houston Center
Fri 12:07:31 PM 31.0903 -98.5544 107° East 453 521 39,000  Level Houston Center
Fri 12:08:33 PM 31.0536 -98.4122 107° East 453 521 39,000  Level Houston Center
Fri 12:09:35 PM 31.0106 -98.2467 107° East 454 522 39,000  Level Houston Center
Fri 12:10:37 PM 30.9731 -98.1058 107° East 452 520 39,000  Level Houston Center
Fri 12:11:39 PM 30.9361 -97.9647 107° East 451 519 39,000  Level Houston Center
Fri 12:12:41 PM 30.8989 -97.8264 107° East 447 514 39,000 -145 Level Houston Center
Fri 12:13:43 PM 30.8619 -97.6892 107° East 442 509 38,700 -864 Descending Houston Center
Fri 12:14:46 PM 30.8242 -97.5511 108° East 444 511 37,200 -2,256 Descending Houston Center
Fri 12:15:48 PM 30.7800 -97.3894 108° East 451 519 34,000 -2,903 Descending Houston Center
Fri 12:16:50 PM 30.7431 -97.2458 107° East 465 535 31,200 -2,419 Descending Houston Center
Fri 12:17:52 PM 30.7056 -97.1053 107° East 458 527 29,000 -1,355 Descending Houston Center
Fri 12:18:54 PM 30.6681 -96.9683 108° East 447 514 28,400 -1,839 Descending Houston Center
Fri 12:19:56 PM 30.6292 -96.8303 108° East 446 513 25,200 -3,097 Descending Houston Center
Fri 12:20:58 PM 30.5831 -96.6661 108° East 454 522 22,000 -2,842 Descending Houston Center
Fri 12:21:50 PM 30.5136 -96.5781 132° Southeast 442 509 19,800 -2,468 Descending Houston Center
Fri 12:23:02 PM 30.4178 -96.4606 133° Southeast 423 487 16,900 -2,373 Descending Houston Center
Fri 12:24:04 PM 30.3386 -96.3647 134° Southeast 409 471 14,500 -2,256 Descending Houston Center
Fri 12:25:07 PM 30.2625 -96.2744 134° Southeast 389 448 12,200 -1,680 Descending Houston Center
Fri 12:26:09 PM 30.1861 -96.1969 139° Southeast 363 418 11,000 -581 Descending Houston Center
Fri 12:27:11 PM 30.0906 -96.1447 155° Southeast 339 390 11,000  Level Houston Center
Fri 12:28:13 PM 30.0050 -96.0994 155° Southeast 336 387 11,000 -48 Level Houston Center
Fri 12:29:15 PM 29.9211 -96.0503 153° Southeast 339 390 10,900 -97 Descending Houston Center
Fri 12:30:17 PM 29.8967 -95.9456 105° East 345 397 10,800 -726 Descending Houston Center
Fri 12:31:19 PM 29.8789 -95.8511 102° East 313 360 9,400 -1,355 Descending Houston Center
Fri 12:32:21 PM 29.8611 -95.7586 102° East 301 346 8,000 -1,452 Descending Houston Center
Fri 12:33:23 PM 29.8394 -95.6489 103° East 293 337 6,400 -960 Descending Houston Center
Fri 12:34:26 PM 29.8236 -95.5642 102° East 280 322 6,000 -864 Descending Houston Center
Fri 12:35:28 PM 29.8092 -95.4900 103° East 250 288 4,600 -1,258 Descending Houston Center
Fri 12:36:30 PM 29.7733 -95.4322 126° Southeast 238 274 3,400 -1,113 Descending Houston Center
Fri 12:37:32 PM 29.7336 -95.3844 134° Southeast 219 252 2,300 -968 Descending Houston Center
Fri 12:38:34 PM 29.7003 -95.3447 134° Southeast 195 224 1,400 -878 Descending Houston Center
Fri 12:39:35 PM 29.6661 -95.3047 135° Southeast 144 166 500 -629 Descending Houston Center
Fri 12:40:38 PM 29.6431 -95.2761 133° Southeast 151 174 100 -381 Descending Houston Center
Fri 12:42:00 PM 29.6454 -95.2789 115° Southeast  Level Estimated

Login

Don't have an account? Register now (free) for customized features, flight alerts, and more!